createdAt,value
2023-05-11T00:01:08.852Z,19.83
2023-05-11T00:03:36.318Z,19.82
2023-05-11T00:06:03.445Z,19.79
2023-05-11T00:08:30.634Z,19.80
2023-05-11T00:10:57.626Z,19.81
2023-05-11T00:13:24.695Z,19.83
2023-05-11T00:15:51.795Z,19.79
2023-05-11T00:18:18.930Z,19.80
2023-05-11T00:20:46.386Z,19.69
2023-05-11T00:23:13.408Z,19.61
2023-05-11T00:25:40.348Z,19.57
2023-05-11T00:28:07.789Z,19.51
2023-05-11T00:30:34.998Z,19.48
2023-05-11T00:33:02.502Z,19.44
2023-05-11T00:35:30.049Z,19.43
2023-05-11T00:37:57.246Z,19.50
2023-05-11T00:40:24.993Z,19.58
2023-05-11T00:42:52.105Z,19.67
2023-05-11T00:45:19.300Z,19.69
2023-05-11T00:47:46.576Z,19.73
2023-05-11T00:50:13.626Z,19.78
2023-05-11T00:52:42.134Z,19.76
2023-05-11T00:55:10.354Z,19.71
2023-05-11T00:57:38.971Z,19.63
2023-05-11T01:00:07.338Z,19.52
2023-05-11T01:02:34.763Z,19.50
2023-05-11T01:05:02.076Z,19.31
2023-05-11T01:07:34.274Z,19.29
2023-05-11T01:10:10.889Z,19.36
2023-05-11T01:12:57.010Z,19.31
2023-05-11T01:15:37.313Z,19.30
2023-05-11T01:18:30.750Z,19.35
2023-05-11T01:21:03.426Z,19.26
2023-05-11T01:23:50.680Z,19.29
2023-05-11T01:26:24.034Z,19.34
2023-05-11T01:29:29.996Z,19.43
2023-05-11T01:31:58.815Z,19.51
2023-05-11T01:34:30.879Z,19.59
2023-05-11T01:37:15.517Z,19.63
2023-05-11T01:40:16.780Z,19.64
2023-05-11T01:43:07.467Z,19.62
2023-05-11T01:45:39.918Z,19.61
2023-05-11T01:48:13.960Z,19.61
2023-05-11T01:50:43.617Z,19.62
2023-05-11T01:53:12.376Z,19.58
2023-05-11T01:55:41.998Z,19.55
2023-05-11T01:58:10.924Z,19.52
2023-05-11T02:00:39.079Z,19.52
2023-05-11T02:03:07.713Z,19.55
2023-05-11T02:05:35.500Z,19.52
2023-05-11T02:08:05.671Z,19.55
2023-05-11T02:10:34.454Z,19.52
2023-05-11T02:13:05.445Z,19.53
2023-05-11T02:15:34.293Z,19.54
2023-05-11T02:18:03.893Z,19.55
2023-05-11T02:20:31.457Z,19.49
2023-05-11T02:22:59.102Z,19.49
2023-05-11T02:25:26.868Z,19.46
2023-05-11T02:27:53.932Z,19.49
2023-05-11T02:30:21.290Z,19.50
2023-05-11T02:32:54.044Z,19.48
2023-05-11T02:35:25.605Z,19.48
2023-05-11T02:37:58.068Z,19.45
2023-05-11T02:40:42.380Z,19.40
2023-05-11T02:43:13.425Z,19.41
2023-05-11T02:45:50.482Z,19.38
2023-05-11T02:48:24.018Z,19.42
2023-05-11T02:50:52.637Z,19.38
2023-05-11T02:53:21.930Z,19.34
2023-05-11T02:55:51.076Z,19.35
2023-05-11T02:58:19.303Z,19.30
2023-05-11T03:00:51.989Z,19.24
2023-05-11T03:03:19.205Z,19.23
2023-05-11T03:05:46.413Z,19.23
2023-05-11T03:08:13.955Z,19.24
2023-05-11T03:10:41.769Z,19.24
2023-05-11T03:13:09.713Z,19.23
2023-05-11T03:15:38.546Z,19.29
2023-05-11T03:18:07.934Z,19.31
2023-05-11T03:20:40.454Z,19.30
2023-05-11T03:23:08.746Z,19.30
2023-05-11T03:25:36.634Z,19.35
2023-05-11T03:28:05.746Z,19.33
2023-05-11T03:30:35.150Z,19.31
2023-05-11T03:33:02.556Z,19.28
2023-05-11T03:35:33.590Z,19.28
2023-05-11T03:38:01.397Z,19.23
2023-05-11T03:40:31.707Z,19.24
2023-05-11T03:43:03.021Z,19.23
2023-05-11T03:45:32.151Z,19.17
2023-05-11T03:48:00.247Z,19.18
2023-05-11T03:50:28.489Z,19.15
2023-05-11T03:52:56.450Z,19.15
2023-05-11T03:55:23.587Z,19.16
2023-05-11T03:57:51.613Z,19.15
2023-05-11T04:00:18.997Z,19.20
2023-05-11T04:02:47.253Z,19.18
2023-05-11T04:05:14.635Z,19.12
2023-05-11T04:07:45.253Z,19.13
2023-05-11T04:10:12.846Z,19.14
2023-05-11T04:12:39.774Z,19.09
2023-05-11T04:15:07.429Z,19.07
2023-05-11T04:17:34.400Z,19.07
2023-05-11T04:20:01.364Z,19.04
2023-05-11T04:22:28.551Z,19.03
2023-05-11T04:24:56.040Z,19.02
2023-05-11T04:27:23.461Z,18.97
2023-05-11T04:29:51.366Z,18.97
2023-05-11T04:32:18.368Z,18.96
2023-05-11T04:34:45.385Z,18.99
2023-05-11T04:37:12.862Z,18.99
2023-05-11T04:39:41.390Z,19.00
2023-05-11T04:42:08.596Z,19.01
2023-05-11T04:44:35.921Z,19.01
2023-05-11T04:47:02.976Z,19.06
2023-05-11T04:49:30.395Z,19.08
2023-05-11T04:51:57.451Z,19.02
2023-05-11T04:54:24.639Z,19.02
2023-05-11T04:56:51.771Z,19.04
2023-05-11T04:59:19.526Z,18.99
2023-05-11T05:01:46.464Z,18.98
2023-05-11T05:04:14.057Z,18.97
2023-05-11T05:06:41.049Z,18.97
2023-05-11T05:09:07.981Z,19.01
2023-05-11T05:11:35.083Z,18.99
2023-05-11T05:14:02.077Z,19.02
2023-05-11T05:16:30.888Z,19.03
2023-05-11T05:18:59.626Z,19.07
2023-05-11T05:21:30.681Z,19.06
2023-05-11T05:23:57.928Z,19.05
2023-05-11T05:26:24.858Z,19.10
2023-05-11T05:28:51.939Z,19.09
2023-05-11T05:31:20.574Z,19.11
2023-05-11T05:33:47.549Z,19.12
2023-05-11T05:36:14.509Z,19.12
2023-05-11T05:38:41.809Z,19.09
2023-05-11T05:41:09.089Z,19.08
2023-05-11T05:43:39.415Z,19.10
2023-05-11T05:46:06.634Z,19.11
2023-05-11T05:48:33.841Z,19.07
2023-05-11T05:51:01.516Z,19.10
2023-05-11T05:53:28.456Z,19.12
2023-05-11T05:55:55.710Z,19.12
2023-05-11T05:58:22.890Z,19.10
2023-05-11T06:00:50.031Z,19.09
2023-05-11T06:03:19.056Z,19.08
2023-05-11T06:05:46.080Z,19.04
2023-05-11T06:08:13.139Z,19.04
2023-05-11T06:10:40.164Z,19.05
2023-05-11T06:13:09.677Z,19.05
2023-05-11T06:15:40.414Z,19.00
2023-05-11T06:18:25.321Z,18.89
2023-05-11T06:20:52.332Z,18.87
2023-05-11T06:23:19.528Z,18.88
2023-05-11T06:25:47.470Z,18.89
2023-05-11T06:28:15.072Z,18.93
2023-05-11T06:30:42.170Z,18.93
2023-05-11T06:33:10.656Z,18.96
2023-05-11T06:35:39.759Z,18.95
2023-05-11T06:38:09.274Z,18.97
2023-05-11T06:40:37.075Z,18.99
2023-05-11T06:43:04.492Z,18.98
2023-05-11T06:45:46.572Z,19.01
2023-05-11T06:48:14.591Z,19.03
2023-05-11T06:50:41.555Z,19.04
2023-05-11T06:53:12.588Z,19.06
2023-05-11T06:55:40.048Z,19.10
2023-05-11T06:58:07.058Z,19.10
2023-05-11T07:00:34.435Z,19.11
2023-05-11T07:03:01.466Z,19.14
2023-05-11T07:05:28.473Z,19.18
2023-05-11T07:07:55.413Z,19.20
2023-05-11T07:10:22.578Z,19.24
2023-05-11T07:12:49.936Z,19.30
2023-05-11T07:15:16.968Z,19.29
2023-05-11T07:17:47.894Z,19.34
2023-05-11T07:20:15.118Z,19.51
2023-05-11T07:22:42.167Z,19.58
2023-05-11T07:25:09.969Z,19.64
2023-05-11T07:27:36.990Z,19.71
2023-05-11T07:30:04.758Z,19.83
2023-05-11T07:32:32.665Z,19.94
2023-05-11T07:34:59.616Z,20.06
2023-05-11T07:37:26.983Z,20.14
2023-05-11T07:39:54.474Z,20.18
2023-05-11T07:42:23.872Z,20.26
2023-05-11T07:44:50.907Z,20.26
2023-05-11T07:47:20.786Z,20.26
2023-05-11T07:49:48.924Z,20.31
2023-05-11T07:52:16.095Z,20.33
2023-05-11T07:54:43.403Z,20.35
2023-05-11T07:57:14.042Z,20.40
2023-05-11T07:59:41.318Z,20.33
2023-05-11T08:02:10.986Z,20.23
2023-05-11T08:04:40.820Z,20.26
2023-05-11T08:07:09.123Z,20.32
2023-05-11T08:09:37.013Z,20.35
2023-05-11T08:12:04.215Z,20.44
2023-05-11T08:14:31.270Z,20.45
2023-05-11T08:16:58.245Z,20.50
2023-05-11T08:19:25.893Z,20.54
2023-05-11T08:21:52.927Z,20.59
2023-05-11T08:24:20.047Z,20.61
2023-05-11T08:26:47.424Z,20.66
2023-05-11T08:29:14.353Z,20.74
2023-05-11T08:31:41.386Z,20.81
2023-05-11T08:34:18.157Z,20.94
2023-05-11T08:36:47.224Z,21.12
2023-05-11T08:39:14.748Z,21.24
2023-05-11T08:41:44.114Z,21.26
2023-05-11T08:44:11.203Z,21.19
2023-05-11T08:46:42.256Z,21.27
2023-05-11T08:49:09.507Z,21.30
2023-05-11T08:51:36.541Z,21.28
2023-05-11T08:54:03.841Z,21.29
2023-05-11T08:56:31.937Z,21.28
2023-05-11T08:58:59.206Z,21.05
2023-05-11T09:01:29.247Z,20.96
2023-05-11T09:03:57.190Z,20.68
2023-05-11T09:06:26.916Z,20.50
2023-05-11T09:08:55.184Z,20.60
2023-05-11T09:11:23.034Z,20.49
2023-05-11T09:13:50.457Z,20.59
2023-05-11T09:16:35.652Z,20.63
2023-05-11T09:19:04.003Z,20.60
2023-05-11T09:21:32.107Z,20.53
2023-05-11T09:23:59.656Z,20.53
2023-05-11T09:26:29.544Z,20.49
2023-05-11T09:31:36.659Z,20.11
2023-05-11T09:34:21.191Z,20.01
2023-05-11T09:36:52.819Z,19.96
2023-05-11T09:39:45.351Z,20.20
2023-05-11T09:42:23.406Z,20.47
2023-05-11T09:44:50.423Z,20.67
2023-05-11T09:47:22.489Z,20.80
2023-05-11T09:49:49.822Z,20.92
2023-05-11T09:52:18.751Z,21.06
2023-05-11T09:54:51.761Z,21.20
2023-05-11T09:57:32.122Z,21.35
2023-05-11T10:00:00.440Z,21.47
2023-05-11T10:02:28.600Z,21.41
2023-05-11T10:05:00.686Z,21.52
2023-05-11T10:07:31.538Z,21.52
2023-05-11T10:10:04.569Z,21.63
2023-05-11T10:12:38.652Z,21.66
2023-05-11T10:15:08.666Z,21.66
2023-05-11T10:17:37.224Z,21.71
2023-05-11T10:20:06.266Z,21.75
2023-05-11T10:22:33.914Z,21.83
2023-05-11T10:25:03.528Z,21.84
2023-05-11T10:27:32.088Z,21.77
2023-05-11T10:29:59.634Z,21.57
2023-05-11T10:32:28.078Z,21.42
2023-05-11T10:34:57.118Z,21.34
2023-05-11T10:37:24.530Z,21.22
2023-05-11T10:39:52.528Z,21.02
2023-05-11T10:42:51.660Z,21.11
2023-05-11T10:45:24.254Z,21.00
2023-05-11T10:47:51.370Z,20.68
2023-05-11T10:50:36.937Z,20.37
2023-05-11T10:53:22.349Z,20.53
2023-05-11T10:56:15.315Z,20.51
2023-05-11T10:59:28.984Z,20.55
2023-05-11T11:01:59.208Z,20.77
2023-05-11T11:04:41.387Z,21.00
2023-05-11T11:07:08.690Z,21.24
2023-05-11T11:09:55.074Z,21.12
2023-05-11T11:12:27.614Z,21.14
2023-05-11T11:14:57.223Z,20.94
2023-05-11T11:17:27.527Z,20.76
2023-05-11T11:19:55.061Z,20.84
2023-05-11T11:22:38.920Z,20.88
2023-05-11T11:25:08.041Z,20.80
2023-05-11T11:27:41.026Z,20.81
2023-05-11T11:30:31.272Z,20.70
2023-05-11T11:33:13.599Z,20.62
2023-05-11T11:35:43.485Z,20.59
2023-05-11T11:38:14.439Z,20.74
2023-05-11T11:43:25.096Z,20.64
2023-05-11T11:46:04.220Z,20.59
2023-05-11T11:48:36.373Z,20.78
2023-05-11T11:51:13.957Z,20.81
2023-05-11T11:53:41.388Z,20.69
2023-05-11T11:56:14.950Z,20.85
2023-05-11T11:58:41.955Z,20.85
2023-05-11T12:01:10.595Z,20.89
2023-05-11T12:03:39.344Z,20.85
2023-05-11T12:06:08.182Z,20.82
2023-05-11T12:08:36.580Z,20.91
2023-05-11T12:11:04.622Z,20.86
2023-05-11T12:13:33.364Z,20.88
2023-05-11T12:16:11.740Z,20.80
2023-05-11T12:18:39.615Z,20.76
2023-05-11T12:21:06.685Z,20.61
2023-05-11T12:23:33.782Z,20.33
2023-05-11T12:26:04.898Z,20.54
2023-05-11T12:28:33.276Z,20.53
2023-05-11T12:31:00.863Z,20.36
2023-05-11T12:33:28.377Z,20.30
2023-05-11T12:35:57.307Z,20.11
2023-05-11T12:38:24.216Z,20.15
2023-05-11T12:40:53.292Z,20.15
2023-05-11T12:43:22.160Z,20.23
2023-05-11T12:45:49.515Z,20.26
2023-05-11T12:48:16.886Z,20.26
2023-05-11T12:50:47.497Z,20.21
2023-05-11T12:53:16.851Z,20.24
2023-05-11T12:55:44.319Z,20.40
2023-05-11T12:58:16.676Z,20.31
2023-05-11T13:00:59.823Z,20.26
2023-05-11T13:03:31.890Z,20.30
2023-05-11T13:06:07.234Z,20.28
2023-05-11T13:08:44.342Z,20.13
2023-05-11T13:11:22.863Z,19.92
2023-05-11T13:13:54.158Z,19.82
2023-05-11T13:16:29.477Z,19.98
2023-05-11T13:19:03.643Z,19.69
2023-05-11T13:21:32.861Z,19.75
2023-05-11T13:24:00.605Z,19.52
2023-05-11T13:26:30.596Z,19.31
2023-05-11T13:29:09.280Z,19.32
2023-05-11T13:31:49.148Z,19.46
2023-05-11T13:34:16.404Z,19.47
2023-05-11T13:36:43.730Z,19.46
2023-05-11T13:39:11.226Z,19.62
2023-05-11T13:41:38.211Z,19.54
2023-05-11T13:44:05.558Z,19.33
2023-05-11T13:46:32.603Z,19.17
2023-05-11T13:49:00.515Z,19.30
2023-05-11T13:51:28.160Z,19.35
2023-05-11T13:53:55.070Z,19.09
2023-05-11T13:56:22.412Z,19.10
2023-05-11T13:58:49.525Z,19.03
2023-05-11T14:01:16.591Z,19.01
2023-05-11T14:03:43.715Z,19.05
2023-05-11T14:06:10.836Z,18.91
2023-05-11T14:08:37.870Z,19.01
2023-05-11T14:11:04.963Z,18.89
2023-05-11T14:13:31.964Z,18.99
2023-05-11T14:15:59.156Z,18.93
2023-05-11T14:18:26.380Z,19.02
2023-05-11T14:20:54.372Z,19.02
2023-05-11T14:23:21.661Z,19.08
2023-05-11T14:25:48.773Z,19.01
2023-05-11T14:28:15.757Z,19.13
2023-05-11T14:30:42.739Z,19.10
2023-05-11T14:33:09.708Z,19.23
2023-05-11T14:35:39.616Z,19.14
2023-05-11T14:38:06.949Z,19.17
2023-05-11T14:40:36.646Z,19.14
2023-05-11T14:43:03.637Z,19.17
2023-05-11T14:45:30.618Z,19.23
2023-05-11T14:47:57.733Z,19.26
2023-05-11T14:50:25.019Z,19.26
2023-05-11T14:52:51.948Z,19.29
2023-05-11T14:55:19.129Z,19.18
2023-05-11T14:57:46.703Z,18.96
2023-05-11T15:00:14.468Z,18.96
2023-05-11T15:02:41.891Z,18.95
2023-05-11T15:05:09.458Z,19.00
2023-05-11T15:07:36.934Z,19.12
2023-05-11T15:10:04.598Z,19.13
2023-05-11T15:12:31.690Z,19.08
2023-05-11T15:14:58.586Z,19.05
2023-05-11T15:17:27.132Z,19.18
2023-05-11T15:19:54.171Z,19.26
2023-05-11T15:22:22.552Z,19.41
2023-05-11T15:24:49.694Z,19.38
2023-05-11T15:27:16.745Z,19.57
2023-05-11T15:29:43.761Z,19.48
2023-05-11T15:32:13.316Z,19.47
2023-05-11T15:34:55.189Z,19.46
2023-05-11T15:37:26.169Z,19.49
2023-05-11T15:39:53.343Z,19.52
2023-05-11T15:42:20.263Z,19.55
2023-05-11T15:44:47.413Z,19.58
2023-05-11T15:47:14.463Z,19.50
2023-05-11T15:49:41.451Z,19.50
2023-05-11T15:52:08.771Z,19.45
2023-05-11T15:54:36.326Z,19.39
2023-05-11T15:57:03.496Z,19.27
2023-05-11T15:59:33.028Z,19.24
2023-05-11T16:02:00.332Z,19.27
2023-05-11T16:04:27.397Z,19.34
2023-05-11T16:06:55.383Z,19.33
2023-05-11T16:09:23.664Z,19.39
2023-05-11T16:11:50.587Z,19.36
2023-05-11T16:14:17.786Z,19.40
2023-05-11T16:16:44.906Z,19.42
2023-05-11T16:19:12.208Z,19.49
2023-05-11T16:21:39.493Z,19.39
2023-05-11T16:24:06.923Z,19.39
2023-05-11T16:26:34.037Z,19.23
2023-05-11T16:29:01.091Z,19.07
2023-05-11T16:31:28.121Z,19.08
2023-05-11T16:33:55.294Z,19.11
2023-05-11T16:36:22.268Z,19.08
2023-05-11T16:38:49.170Z,19.06
2023-05-11T16:41:16.130Z,19.12
2023-05-11T16:43:44.188Z,19.11
2023-05-11T16:46:11.305Z,18.85
2023-05-11T16:48:38.342Z,18.92
2023-05-11T16:51:05.484Z,18.95
2023-05-11T16:53:32.564Z,18.98
2023-05-11T16:55:59.631Z,18.97
2023-05-11T16:58:26.834Z,18.98
2023-05-11T17:00:53.985Z,18.95
2023-05-11T17:03:21.234Z,18.72
2023-05-11T17:05:48.779Z,18.84
2023-05-11T17:08:15.803Z,18.87
2023-05-11T17:10:42.879Z,18.93
2023-05-11T17:13:09.942Z,18.92
2023-05-11T17:15:36.915Z,18.86
2023-05-11T17:18:04.280Z,18.86
2023-05-11T17:20:31.977Z,18.85
2023-05-11T17:22:59.488Z,18.85
2023-05-11T17:25:30.082Z,18.94
2023-05-11T17:27:57.117Z,18.77
2023-05-11T17:30:32.878Z,18.65
2023-05-11T17:33:04.034Z,18.64
2023-05-11T17:35:37.058Z,18.66
2023-05-11T17:38:05.643Z,18.48
2023-05-11T17:40:32.546Z,18.53
2023-05-11T17:42:59.637Z,18.61
2023-05-11T17:45:26.642Z,18.62
2023-05-11T17:47:54.581Z,18.61
2023-05-11T17:50:22.334Z,18.51
2023-05-11T17:52:51.016Z,18.41
2023-05-11T17:55:18.651Z,18.38
2023-05-11T17:57:45.717Z,18.42
2023-05-11T18:00:13.066Z,18.40
2023-05-11T18:02:40.336Z,18.36
2023-05-11T18:05:07.638Z,18.30
2023-05-11T18:07:34.650Z,18.32
2023-05-11T18:10:01.662Z,18.24
2023-05-11T18:12:30.630Z,18.19
2023-05-11T18:15:07.787Z,18.23
2023-05-11T18:17:35.031Z,18.16
2023-05-11T18:20:02.143Z,18.05
2023-05-11T18:22:31.048Z,18.19
2023-05-11T18:24:58.149Z,18.11
2023-05-11T18:27:25.787Z,18.20
2023-05-11T18:29:53.664Z,18.23
2023-05-11T18:32:24.426Z,18.36
2023-05-11T18:34:51.571Z,18.41
2023-05-11T18:37:18.930Z,18.33
2023-05-11T18:39:46.369Z,18.31
2023-05-11T18:42:13.306Z,18.37
2023-05-11T18:44:40.829Z,18.24
2023-05-11T18:47:08.135Z,18.31
2023-05-11T18:49:35.570Z,18.34
2023-05-11T18:52:04.061Z,18.35
2023-05-11T18:54:31.072Z,18.39
2023-05-11T18:56:58.541Z,18.30
2023-05-11T18:59:25.457Z,18.46
2023-05-11T19:01:52.764Z,18.57
2023-05-11T19:04:22.179Z,18.66
2023-05-11T19:06:49.263Z,18.62
2023-05-11T19:09:16.178Z,18.66
2023-05-11T19:11:43.313Z,18.56
2023-05-11T19:14:12.446Z,18.48
2023-05-11T19:16:39.493Z,18.53
2023-05-11T19:19:07.239Z,18.60
2023-05-11T19:21:39.960Z,18.58
2023-05-11T19:24:08.073Z,18.57
2023-05-11T19:26:35.686Z,18.52
2023-05-11T19:29:02.901Z,18.56
2023-05-11T19:31:31.505Z,18.56
2023-05-11T19:33:59.246Z,18.60
2023-05-11T19:36:27.522Z,18.64
2023-05-11T19:38:55.019Z,18.60
2023-05-11T19:41:25.290Z,18.59
2023-05-11T19:43:52.222Z,18.66
2023-05-11T19:46:19.197Z,18.70
2023-05-11T19:48:46.487Z,18.77
2023-05-11T19:51:13.485Z,18.79
2023-05-11T19:53:40.946Z,18.72
2023-05-11T19:56:08.740Z,18.72
2023-05-11T19:58:35.769Z,18.67
2023-05-11T20:01:02.873Z,18.65
2023-05-11T20:03:29.999Z,18.14
2023-05-11T20:05:57.377Z,18.10
2023-05-11T20:08:24.411Z,18.06
2023-05-11T20:10:51.399Z,18.01
2023-05-11T20:13:18.606Z,18.00
2023-05-11T20:15:45.665Z,18.07
2023-05-11T20:18:12.725Z,18.20
2023-05-11T20:20:39.657Z,18.25
2023-05-11T20:23:06.790Z,18.23
2023-05-11T20:25:34.112Z,18.24
2023-05-11T20:28:01.289Z,18.11
2023-05-11T20:30:28.529Z,18.03
2023-05-11T20:35:25.436Z,18.08
2023-05-11T20:37:52.528Z,18.00
2023-05-11T20:40:19.990Z,17.88
2023-05-11T20:42:47.285Z,17.88
2023-05-11T20:45:14.897Z,17.99
2023-05-11T20:47:41.866Z,18.03
2023-05-11T20:50:10.236Z,18.13
2023-05-11T20:52:37.731Z,17.96
2023-05-11T20:55:05.087Z,17.98
2023-05-11T20:57:32.009Z,17.81
2023-05-11T21:02:29.113Z,17.84
2023-05-11T21:05:02.025Z,17.80
2023-05-11T21:07:29.877Z,17.81
2023-05-11T21:09:56.799Z,17.78
2023-05-11T21:12:24.366Z,17.85
2023-05-11T21:14:51.292Z,17.80
2023-05-11T21:17:18.541Z,17.83
2023-05-11T21:19:45.605Z,17.87
2023-05-11T21:22:12.623Z,17.94
2023-05-11T21:24:39.597Z,17.89
2023-05-11T21:27:06.602Z,17.98
2023-05-11T21:29:33.489Z,17.99
2023-05-11T21:32:00.591Z,18.02
2023-05-11T21:34:27.473Z,17.97
2023-05-11T21:36:54.325Z,18.02
2023-05-11T21:39:21.450Z,18.01
2023-05-11T21:41:53.130Z,18.07
2023-05-11T21:44:20.609Z,17.82
2023-05-11T21:46:47.767Z,17.76
2023-05-11T21:49:14.910Z,17.78
2023-05-11T21:51:42.623Z,17.88
2023-05-11T21:54:09.650Z,18.00
2023-05-11T21:56:36.973Z,18.03
2023-05-11T21:59:03.975Z,18.09
2023-05-11T22:01:31.203Z,18.12
2023-05-11T22:04:01.075Z,18.17
2023-05-11T22:06:28.242Z,18.20
2023-05-11T22:08:55.165Z,18.28
2023-05-11T22:11:22.695Z,18.32
2023-05-11T22:13:49.809Z,18.30
2023-05-11T22:16:16.822Z,18.36
2023-05-11T22:18:43.867Z,18.39
2023-05-11T22:21:10.964Z,18.44
2023-05-11T22:23:38.030Z,18.46
2023-05-11T22:26:05.290Z,18.48
2023-05-11T22:28:33.015Z,18.48
2023-05-11T22:31:00.743Z,18.49
2023-05-11T22:33:27.704Z,18.42
2023-05-11T22:35:54.812Z,18.45
2023-05-11T22:38:21.785Z,18.44
2023-05-11T22:40:49.626Z,18.46
2023-05-11T22:43:16.694Z,18.45
2023-05-11T22:45:43.782Z,18.42
2023-05-11T22:48:10.792Z,18.41
2023-05-11T22:50:38.056Z,18.38
2023-05-11T22:53:05.048Z,18.39
2023-05-11T22:55:34.039Z,18.39
2023-05-11T22:58:07.575Z,18.41
2023-05-11T23:00:34.558Z,18.40
2023-05-11T23:03:02.560Z,18.41
2023-05-11T23:05:30.568Z,18.40
2023-05-11T23:07:59.945Z,18.41
2023-05-11T23:10:27.534Z,18.39
2023-05-11T23:12:57.557Z,18.41
2023-05-11T23:15:24.883Z,18.41
2023-05-11T23:17:52.261Z,18.40
2023-05-11T23:20:21.932Z,18.42
2023-05-11T23:22:49.355Z,18.41
2023-05-11T23:25:16.429Z,18.41
2023-05-11T23:27:43.452Z,18.41
2023-05-11T23:30:11.247Z,18.44
2023-05-11T23:32:38.953Z,18.45
2023-05-11T23:35:07.505Z,18.44
2023-05-11T23:37:34.503Z,18.46
2023-05-11T23:40:04.983Z,18.47
2023-05-11T23:42:32.031Z,18.46
2023-05-11T23:45:04.348Z,18.43
2023-05-11T23:47:34.334Z,18.46
2023-05-11T23:50:01.378Z,18.47
2023-05-11T23:52:28.330Z,18.44
2023-05-11T23:54:55.383Z,18.45
2023-05-11T23:57:22.325Z,18.47
2023-05-11T23:59:49.676Z,18.47
